Time;durP1;ratioP1;P1;durP2;ratioP2;P2;SDS_P1;SDS_P2;PMS_P1;PMS_P2;Temp;Humidity;BMP_temperature;BMP_pressure;BME280_temperature;BME280_humidity;BME280_pressure;Samples;Min_cycle;Max_cycle;Signal;HPM_P1;HPM_P2
2022/06/22 00:00:35;;;;;;;10.25;5.90;;;17.40;99.90;;;;;;5059107;28;20171;-77
2022/06/22 00:03:02;;;;;;;8.88;6.00;;;17.40;99.90;;;;;;5072701;28;20355;-77
2022/06/22 00:05:37;;;;;;;9.38;5.75;;;17.40;99.90;;;;;;5057982;28;20022;-77
2022/06/22 00:08:06;;;;;;;7.55;5.40;;;17.40;99.90;;;;;;5064089;28;20035;-77
2022/06/22 00:11:07;;;;;;;7.03;5.68;;;17.40;99.90;;;;;;5054150;28;20048;-77
2022/06/22 00:13:33;;;;;;;7.18;5.90;;;17.40;99.90;;;;;;5068624;28;20067;-77
2022/06/22 00:16:03;;;;;;;7.90;5.57;;;17.40;99.90;;;;;;5069784;28;20078;-77
2022/06/22 00:18:39;;;;;;;9.77;6.00;;;17.40;99.90;;;;;;5046051;28;20052;-77
2022/06/22 00:21:15;;;;;;;10.80;6.00;;;17.40;99.90;;;;;;5063624;28;20036;-77
2022/06/22 00:23:43;;;;;;;7.72;5.75;;;17.30;99.90;;;;;;5072307;28;20092;-77
2022/06/22 00:26:24;;;;;;;8.02;6.32;;;17.30;99.90;;;;;;5042248;28;20382;-77
2022/06/22 00:29:04;;;;;;;12.30;7.45;;;17.30;99.90;;;;;;5071049;28;20031;-77
2022/06/22 00:31:36;;;;;;;11.25;7.18;;;17.30;99.90;;;;;;5071579;28;20107;-77
2022/06/22 00:34:10;;;;;;;13.02;7.45;;;17.30;99.90;;;;;;5070099;28;20099;-77
2022/06/22 00:36:48;;;;;;;11.23;7.43;;;17.20;99.90;;;;;;5040144;28;20025;-77
2022/06/22 00:39:18;;;;;;;10.52;6.72;;;17.20;99.90;;;;;;5044865;28;20455;-77
2022/06/22 00:42:15;;;;;;;10.90;7.40;;;17.20;99.90;;;;;;5071822;28;20422;-77
2022/06/22 00:45:05;;;;;;;10.00;7.03;;;17.30;99.90;;;;;;5066983;28;20115;-77
2022/06/22 00:47:31;;;;;;;11.77;7.22;;;17.20;99.90;;;;;;5069407;28;20029;-77
2022/06/22 00:50:01;;;;;;;10.30;6.93;;;17.20;99.90;;;;;;5052854;28;20074;-76
2022/06/22 00:52:38;;;;;;;12.90;7.47;;;17.20;99.90;;;;;;5071414;28;20029;-77
2022/06/22 00:55:15;;;;;;;11.18;8.10;;;17.20;99.90;;;;;;5053305;28;20032;-76
2022/06/22 00:57:45;;;;;;;12.60;7.88;;;17.20;99.90;;;;;;5059604;28;20027;-77
2022/06/22 01:00:18;;;;;;;9.60;6.93;;;17.20;99.90;;;;;;5049965;28;20075;-77
2022/06/22 01:02:57;;;;;;;11.35;7.30;;;17.20;99.90;;;;;;5067645;28;20052;-77
2022/06/22 01:05:38;;;;;;;10.07;7.43;;;17.20;99.90;;;;;;5063405;28;20112;-77
2022/06/22 01:08:34;;;;;;;9.68;7.38;;;17.20;99.90;;;;;;5067554;28;20033;-77
2022/06/22 01:14:37;;;;;;;10.32;7.38;;;17.20;99.90;;;;;;5059133;28;20082;-77
2022/06/22 01:17:06;;;;;;;12.63;7.15;;;17.20;99.90;;;;;;5043610;28;20059;-77
2022/06/22 01:19:50;;;;;;;12.48;7.70;;;17.20;99.90;;;;;;5054697;28;20029;-77
2022/06/22 01:22:21;;;;;;;11.77;7.50;;;17.20;99.90;;;;;;5036360;28;20020;-77
2022/06/22 01:25:12;;;;;;;11.07;8.25;;;17.20;99.90;;;;;;5052370;28;20025;-77
2022/06/22 01:27:41;;;;;;;12.98;7.32;;;17.20;99.90;;;;;;5045719;28;20064;-77
2022/06/22 01:30:38;;;;;;;10.07;8.05;;;17.20;99.90;;;;;;5052441;28;20382;-77
2022/06/22 01:33:24;;;;;;;14.75;8.77;;;17.10;99.90;;;;;;5039775;28;20611;-77
2022/06/22 01:35:57;;;;;;;9.70;7.65;;;17.20;99.90;;;;;;5050496;28;20042;-77
2022/06/22 01:38:29;;;;;;;14.57;8.65;;;17.20;99.90;;;;;;5048618;28;20033;-77
2022/06/22 01:41:01;;;;;;;11.43;8.05;;;17.20;99.90;;;;;;5050633;28;20025;-76
2022/06/22 01:43:53;;;;;;;9.57;8.05;;;17.20;99.90;;;;;;5050908;28;20020;-77
2022/06/22 01:46:43;;;;;;;11.50;7.72;;;17.20;99.90;;;;;;5043360;28;20033;-76
2022/06/22 01:49:19;;;;;;;11.80;8.95;;;17.20;99.90;;;;;;5050524;28;20097;-76
2022/06/22 01:52:21;;;;;;;10.07;7.82;;;17.20;99.90;;;;;;5050698;28;20077;-76
2022/06/22 01:54:57;;;;;;;12.63;8.55;;;17.20;99.90;;;;;;5047121;28;20014;-77
2022/06/22 01:57:29;;;;;;;8.95;7.85;;;17.10;99.90;;;;;;5046624;28;20025;-77
2022/06/22 02:00:07;;;;;;;10.57;8.05;;;17.20;99.90;;;;;;5030201;28;20036;-77
2022/06/22 02:03:14;;;;;;;10.75;7.85;;;17.20;99.90;;;;;;5050153;28;20063;-75
2022/06/22 02:05:52;;;;;;;10.70;8.38;;;17.10;99.90;;;;;;5021902;28;20032;-75
2022/06/22 02:08:22;;;;;;;11.38;8.23;;;17.10;99.90;;;;;;5051256;28;20021;-75
2022/06/22 02:10:52;;;;;;;11.38;7.85;;;17.10;99.90;;;;;;5051498;28;20048;-75
2022/06/22 02:13:37;;;;;;;14.07;7.80;;;17.10;99.90;;;;;;5051510;28;20022;-75
2022/06/22 02:16:12;;;;;;;;;;;17.10;99.90;;;;;;5044080;28;20025;-75
2022/06/22 02:18:43;;;;;;;10.75;7.93;;;17.10;99.90;;;;;;5046908;28;20358;-75
2022/06/22 02:21:38;;;;;;;11.60;7.43;;;17.10;99.90;;;;;;5033057;28;20029;-75
2022/06/22 02:24:28;;;;;;;13.38;8.07;;;17.10;99.90;;;;;;5050462;28;20017;-75
2022/06/22 02:26:58;;;;;;;9.95;7.07;;;17.10;99.90;;;;;;5050342;28;20056;-75
2022/06/22 02:29:28;;;;;;;9.93;7.28;;;17.10;99.90;;;;;;5049829;28;20021;-75
2022/06/22 02:31:58;;;;;;;12.75;7.18;;;17.10;99.90;;;;;;5048511;28;20025;-75
2022/06/22 02:34:24;;;;;;;9.18;8.00;;;17.10;99.90;;;;;;5050049;28;20017;-75
2022/06/22 02:36:53;;;;;;;9.00;6.68;;;17.10;99.90;;;;;;5049840;28;20015;-75
2022/06/22 02:39:20;;;;;;;12.05;6.10;;;17.10;99.90;;;;;;5050029;28;20103;-75
2022/06/22 02:44:34;;;;;;;7.95;5.80;;;17.10;99.90;;;;;;5050041;28;20037;-75
2022/06/22 02:47:22;;;;;;;9.32;6.15;;;17.10;99.90;;;;;;5051672;28;20027;-74
2022/06/22 02:49:55;;;;;;;9.10;5.68;;;17.10;99.90;;;;;;5053634;28;20033;-74
2022/06/22 02:52:26;;;;;;;8.13;5.95;;;17.10;99.90;;;;;;5041924;28;20080;-74
2022/06/22 02:54:55;;;;;;;10.10;5.78;;;17.10;99.90;;;;;;5058235;28;20021;-74
2022/06/22 02:57:46;;;;;;;12.18;5.07;;;17.10;99.90;;;;;;5057041;28;20017;-74
2022/06/22 03:00:13;;;;;;;9.10;5.63;;;17.10;99.90;;;;;;5055920;28;20081;-73
2022/06/22 03:02:41;;;;;;;9.65;4.80;;;17.10;99.90;;;;;;5055920;28;20031;-73
2022/06/22 03:05:10;;;;;;;9.02;4.80;;;17.10;99.90;;;;;;5055837;28;20362;-73
2022/06/22 03:07:44;;;;;;;7.43;4.93;;;17.10;99.90;;;;;;5051986;28;20384;-73
2022/06/22 03:10:56;;;;;;;10.50;4.82;;;17.10;99.90;;;;;;5055084;28;20052;-75
2022/06/22 03:13:31;;;;;;;8.38;4.80;;;17.20;99.90;;;;;;4963391;28;20121;-75
2022/06/22 03:15:57;;;;;;;9.25;5.43;;;17.20;99.90;;;;;;5041317;28;20139;-75
2022/06/22 03:18:29;;;;;;;8.80;5.65;;;17.20;99.90;;;;;;5051434;28;20021;-75
2022/06/22 03:21:03;;;;;;;13.93;5.68;;;17.20;99.90;;;;;;5053260;28;20045;-75
2022/06/22 03:23:53;;;;;;;11.55;5.63;;;17.20;99.90;;;;;;5053391;28;20082;-75
2022/06/22 03:26:41;;;;;;;9.77;5.38;;;17.20;99.90;;;;;;5040261;28;20029;-75
2022/06/22 03:29:22;;;;;;;8.85;5.50;;;17.20;99.90;;;;;;5050923;28;20090;-76
2022/06/22 03:32:00;;;;;;;12.48;4.97;;;17.20;99.90;;;;;;5052887;28;20029;-76
2022/06/22 03:34:33;;;;;;;12.10;5.60;;;17.20;99.90;;;;;;5054380;28;20095;-76
2022/06/22 03:37:05;;;;;;;10.52;5.70;;;17.20;99.90;;;;;;5036481;28;20021;-76
2022/06/22 03:39:35;;;;;;;7.35;5.25;;;17.20;99.90;;;;;;5054567;28;20473;-75
2022/06/22 03:42:06;;;;;;;8.13;5.35;;;17.20;99.90;;;;;;5056531;28;20032;-74
2022/06/22 03:44:41;;;;;;;7.93;5.07;;;17.10;99.90;;;;;;5058272;28;20082;-74
2022/06/22 03:47:19;;;;;;;9.65;5.40;;;17.20;99.90;;;;;;5065108;28;20032;-75
2022/06/22 03:49:56;;;;;;;8.18;5.57;;;17.20;99.90;;;;;;5068896;28;20025;-75
2022/06/22 03:52:42;;;;;;;7.80;5.57;;;17.20;99.90;;;;;;5055505;28;20100;-75
2022/06/22 03:55:13;;;;;;;11.30;6.32;;;17.20;99.90;;;;;;5041113;28;20086;-74
2022/06/22 03:57:43;;;;;;;11.32;6.10;;;17.20;99.90;;;;;;5054660;28;20103;-73
2022/06/22 04:00:10;;;;;;;8.18;5.60;;;17.20;99.90;;;;;;5049427;28;20025;-73
2022/06/22 04:02:36;;;;;;;9.00;5.47;;;17.20;99.90;;;;;;5057658;28;20032;-73
2022/06/22 04:05:04;;;;;;;14.93;6.30;;;17.20;99.90;;;;;;5057315;28;20029;-74
2022/06/22 04:07:36;;;;;;;9.55;5.50;;;17.20;99.90;;;;;;5036746;28;20101;-73
2022/06/22 04:10:05;;;;;;;7.78;5.65;;;17.20;99.90;;;;;;5054318;28;20600;-74
2022/06/22 04:12:33;;;;;;;9.13;5.38;;;17.30;99.90;;;;;;5054518;28;20025;-73
2022/06/22 04:15:29;;;;;;;8.15;5.72;;;17.30;99.90;;;;;;5054505;28;20029;-73
2022/06/22 04:18:13;;;;;;;10.70;5.30;;;17.30;99.90;;;;;;5053955;28;20032;-73
2022/06/22 04:20:56;;;;;;;8.10;5.18;;;17.40;99.90;;;;;;5064014;28;20043;-73
2022/06/22 04:23:31;;;;;;;7.63;5.15;;;17.50;99.90;;;;;;5060338;28;20060;-75
2022/06/22 04:26:16;;;;;;;7.68;5.53;;;17.60;99.90;;;;;;5039180;28;20115;-80
2022/06/22 04:28:46;;;;;;;9.93;5.97;;;17.60;99.90;;;;;;5057453;28;20033;-75
2022/06/22 04:31:18;;;;;;;11.00;5.75;;;17.70;99.90;;;;;;5051318;28;20049;-75
2022/06/22 04:33:47;;;;;;;8.13;5.50;;;17.70;99.90;;;;;;5052394;28;20045;-75
2022/06/22 04:36:34;;;;;;;11.75;5.70;;;17.80;99.90;;;;;;5053815;28;20025;-75
2022/06/22 04:39:09;;;;;;;13.93;6.60;;;17.80;99.90;;;;;;5052145;28;20018;-75
2022/06/22 04:41:38;;;;;;;11.10;5.40;;;18.00;99.90;;;;;;5048089;28;20025;-75
2022/06/22 04:44:10;;;;;;;14.07;6.28;;;18.00;99.90;;;;;;5052716;28;20018;-75
2022/06/22 04:46:40;;;;;;;10.23;5.53;;;18.10;99.90;;;;;;5053076;28;20029;-75
2022/06/22 04:49:20;;;;;;;10.25;5.78;;;18.20;99.90;;;;;;5054278;28;20048;-75
2022/06/22 04:51:54;;;;;;;14.48;6.20;;;18.30;99.90;;;;;;5048326;28;20024;-75
2022/06/22 04:54:24;;;;;;;11.80;5.15;;;18.40;99.90;;;;;;5048949;28;20103;-75
2022/06/22 04:56:53;;;;;;;9.98;5.43;;;18.40;99.90;;;;;;5042989;28;20442;-75
2022/06/22 04:59:20;;;;;;;13.13;5.70;;;18.50;99.90;;;;;;5044204;28;20020;-75
2022/06/22 05:01:57;;;;;;;12.82;5.88;;;18.60;99.90;;;;;;5054962;28;20295;-75
2022/06/22 05:04:30;;;;;;;10.85;5.63;;;18.60;99.90;;;;;;5050567;28;20020;-75
2022/06/22 05:07:30;;;;;;;7.97;5.28;;;18.70;99.90;;;;;;5053874;28;20056;-69
2022/06/22 05:09:59;;;;;;;11.43;5.57;;;18.70;99.90;;;;;;5036169;28;20045;-69
2022/06/22 05:12:27;;;;;;;8.90;5.00;;;18.80;99.90;;;;;;5039872;28;20464;-72
2022/06/22 05:14:57;;;;;;;11.65;5.63;;;18.90;99.90;;;;;;5054090;28;20083;-70
2022/06/22 05:17:28;;;;;;;10.02;5.20;;;19.00;99.90;;;;;;5050913;28;20609;-70
2022/06/22 05:19:59;;;;;;;11.73;5.07;;;19.00;99.90;;;;;;5057108;28;20020;-69
2022/06/22 05:22:24;;;;;;;8.82;5.10;;;19.10;99.90;;;;;;5032882;28;20045;-70
2022/06/22 05:24:58;;;;;;;12.30;5.03;;;19.10;99.90;;;;;;5038984;28;20090;-69
2022/06/22 05:27:30;;;;;;;10.97;5.70;;;19.20;99.90;;;;;;5047115;28;20116;-69
2022/06/22 05:30:05;;;;;;;10.50;5.78;;;19.20;99.90;;;;;;5050960;28;20345;-69
2022/06/22 05:32:37;;;;;;;8.00;5.00;;;19.20;99.90;;;;;;5050938;28;20444;-69
2022/06/22 05:35:09;;;;;;;11.45;5.65;;;19.20;99.90;;;;;;5047416;28;20033;-69
2022/06/22 05:37:39;;;;;;;8.00;5.30;;;19.20;99.90;;;;;;5050155;28;20029;-69
2022/06/22 05:40:05;;;;;;;9.40;4.80;;;19.20;99.90;;;;;;5048959;28;20033;-68
2022/06/22 05:42:32;;;;;;;7.70;4.47;;;19.20;99.90;;;;;;5044709;28;20877;-70
2022/06/22 05:44:58;;;;;;;11.77;4.75;;;19.20;99.90;;;;;;5038112;28;20887;-71
2022/06/22 05:47:28;;;;;;;10.23;4.07;;;19.30;99.90;;;;;;5041102;28;20399;-71
2022/06/22 05:50:21;;;;;;;9.80;4.95;;;19.30;99.90;;;;;;5040538;28;20041;-71
2022/06/22 05:52:54;;;;;;;11.82;4.97;;;19.30;99.90;;;;;;5040122;28;20040;-70
2022/06/22 05:55:36;;;;;;;10.40;4.63;;;19.40;99.90;;;;;;5043625;28;20033;-70
2022/06/22 05:58:12;;;;;;;8.65;4.63;;;19.50;99.90;;;;;;5047035;28;20056;-70
2022/06/22 06:00:50;;;;;;;13.23;4.55;;;19.60;99.90;;;;;;5045229;28;20032;-71
2022/06/22 06:03:45;;;;;;;10.30;4.30;;;19.80;99.90;;;;;;5050660;28;20020;-71
2022/06/22 06:06:26;;;;;;;10.77;4.93;;;20.00;99.90;;;;;;5040729;28;20057;-71
2022/06/22 06:09:05;;;;;;;9.70;4.05;;;20.10;99.90;;;;;;5037704;28;20091;-71
2022/06/22 06:11:37;;;;;;;9.68;4.20;;;20.30;99.90;;;;;;5027847;28;20046;-71
2022/06/22 06:14:09;;;;;;;10.90;4.60;;;20.40;99.90;;;;;;5047298;28;20385;-70
2022/06/22 06:16:50;;;;;;;8.90;4.00;;;20.50;99.90;;;;;;5044368;28;20033;-70
2022/06/22 06:19:21;;;;;;;10.77;4.68;;;20.70;99.90;;;;;;5039503;28;20196;-71
2022/06/22 06:21:53;;;;;;;13.43;4.22;;;20.70;99.90;;;;;;5039289;28;20029;-86
2022/06/22 06:24:30;;;;;;;12.35;4.80;;;20.80;99.90;;;;;;5061174;28;20166;-70
2022/06/22 06:27:35;;;;;;;11.27;4.28;;;20.70;99.90;;;;;;5058835;28;20020;-70
2022/06/22 06:30:24;;;;;;;9.77;4.90;;;20.80;99.90;;;;;;5010625;28;20040;-70
2022/06/22 06:33:15;;;;;;;11.80;4.65;;;20.70;99.90;;;;;;5042029;28;20025;-70
2022/06/22 06:35:50;;;;;;;13.23;4.88;;;20.70;99.90;;;;;;5042733;28;20025;-70
2022/06/22 06:38:39;;;;;;;9.18;4.50;;;20.70;99.90;;;;;;5048247;28;20016;-70
2022/06/22 06:41:09;;;;;;;10.07;4.70;;;20.60;99.90;;;;;;5036605;28;20140;-68
2022/06/22 06:43:44;;;;;;;11.90;4.82;;;20.60;99.90;;;;;;5046216;28;20036;-68
2022/06/22 06:46:15;;;;;;;10.40;4.43;;;20.60;99.90;;;;;;5045122;28;20653;-67
2022/06/22 06:48:44;;;;;;;9.30;4.25;;;20.60;99.90;;;;;;5027282;28;20155;-68
2022/06/22 06:51:15;;;;;;;13.20;4.13;;;20.60;99.90;;;;;;5045079;28;20112;-68
2022/06/22 06:53:49;;;;;;;10.98;4.75;;;20.50;99.90;;;;;;5041594;28;20495;-68
2022/06/22 06:56:47;;;;;;;16.23;4.78;;;20.50;99.90;;;;;;5044511;28;20021;-68
2022/06/22 06:59:20;;;;;;;12.20;4.72;;;20.40;99.90;;;;;;5025495;28;20040;-68
2022/06/22 07:01:46;;;;;;;14.15;4.47;;;20.40;99.90;;;;;;5052296;28;20074;-68
2022/06/22 07:04:38;;;;;;;10.43;4.65;;;20.40;99.90;;;;;;5052595;28;20033;-69
2022/06/22 07:07:28;;;;;;;13.68;4.32;;;20.40;99.90;;;;;;5044891;28;20037;-69
2022/06/22 07:09:58;;;;;;;13.43;3.97;;;20.50;99.90;;;;;;5051961;28;20165;-68
2022/06/22 07:12:39;;;;;;;12.77;5.22;;;20.40;99.90;;;;;;5052844;28;20108;-68
2022/06/22 07:15:09;;;;;;;8.70;4.28;;;20.50;99.90;;;;;;5047684;28;20105;-69
2022/06/22 07:17:35;;;;;;;11.10;5.28;;;20.50;99.90;;;;;;5042375;28;20104;-68
2022/06/22 07:20:15;;;;;;;16.13;5.03;;;20.50;99.90;;;;;;5049433;28;20119;-68
2022/06/22 07:23:01;;;;;;;15.55;4.70;;;20.50;99.90;;;;;;5052276;28;20033;-68
2022/06/22 07:25:36;;;;;;;18.48;4.72;;;20.50;99.90;;;;;;5051150;28;20029;-68
2022/06/22 07:28:05;;;;;;;;;;;20.60;99.90;;;;;;5049732;28;20481;-70
2022/06/22 07:30:42;;;;;;;15.38;4.72;;;20.60;99.90;;;;;;5049874;28;20097;-70
2022/06/22 07:33:27;;;;;;;15.77;4.93;;;20.70;99.90;;;;;;5031633;28;20108;-69
2022/06/22 07:36:04;;;;;;;14.87;4.63;;;20.80;99.90;;;;;;5031889;28;20352;-70
2022/06/22 07:39:01;;;;;;;10.07;5.22;;;20.90;99.90;;;;;;5047269;28;20021;-69
2022/06/22 07:41:29;;;;;;;11.68;4.13;;;21.00;99.90;;;;;;5046071;28;20036;-70
2022/06/22 07:44:06;;;;;;;11.25;4.53;;;21.00;99.90;;;;;;5047826;28;20033;-70
2022/06/22 07:46:43;;;;;;;13.25;4.60;;;21.00;99.90;;;;;;5038111;28;20424;-70
2022/06/22 07:49:26;;;;;;;13.05;4.43;;;21.00;99.90;;;;;;5038352;28;20025;-69
2022/06/22 07:51:55;;;;;;;15.57;5.68;;;21.00;99.90;;;;;;5049175;28;20040;-70
2022/06/22 07:54:32;;;;;;;10.18;4.50;;;21.00;99.90;;;;;;5050424;28;20021;-70
2022/06/22 07:57:22;;;;;;;14.70;4.35;;;21.10;99.90;;;;;;5055771;28;20028;-69
2022/06/22 07:59:58;;;;;;;14.13;4.50;;;21.10;99.90;;;;;;5053293;28;20025;-70
2022/06/22 08:02:32;;;;;;;17.63;4.05;;;21.20;99.90;;;;;;5055371;28;20094;-69
2022/06/22 08:05:11;;;;;;;14.45;3.90;;;21.20;99.90;;;;;;5049431;28;20740;-70
2022/06/22 08:07:57;;;;;;;14.40;4.55;;;21.30;99.90;;;;;;5048881;28;20430;-70
2022/06/22 08:10:28;;;;;;;14.77;4.38;;;21.30;99.90;;;;;;5045236;28;20045;-68
2022/06/22 08:12:59;;;;;;;14.63;4.63;;;21.50;99.90;;;;;;5046214;28;20100;-68
2022/06/22 08:15:30;;;;;;;12.50;4.47;;;21.50;99.90;;;;;;5051397;28;20469;-68
2022/06/22 08:17:58;;;;;;;15.35;4.35;;;21.50;99.90;;;;;;5043916;28;20027;-68
2022/06/22 08:20:28;;;;;;;15.00;4.75;;;21.50;99.90;;;;;;5050700;28;20104;-67
2022/06/22 08:22:56;;;;;;;13.35;4.60;;;21.60;99.90;;;;;;5051482;28;20099;-68
2022/06/22 08:25:22;;;;;;;18.35;4.35;;;21.60;99.90;;;;;;5050457;28;20029;-68
2022/06/22 08:27:49;;;;;;;14.57;4.38;;;21.60;99.90;;;;;;5053618;28;20377;-68
2022/06/22 08:30:16;;;;;;;12.75;4.68;;;21.60;99.90;;;;;;5045484;28;20034;-66
2022/06/22 08:33:02;;;;;;;14.02;4.88;;;21.60;99.90;;;;;;5032585;28;20022;-66
2022/06/22 08:35:36;;;;;;;12.32;4.30;;;21.60;99.90;;;;;;5040319;28;20028;-75
2022/06/22 08:38:07;;;;;;;12.00;4.20;;;21.60;99.90;;;;;;5067290;28;20028;-76
2022/06/22 08:40:52;;;;;;;16.92;4.57;;;21.60;99.90;;;;;;5046317;28;20027;-75
2022/06/22 08:43:36;;;;;;;14.73;4.78;;;21.50;99.90;;;;;;5052135;28;20032;-75
2022/06/22 08:46:12;;;;;;;15.30;4.47;;;21.60;99.90;;;;;;5053561;28;20025;-74
2022/06/22 08:48:38;;;;;;;12.95;5.35;;;21.50;99.90;;;;;;5042719;28;20035;-74
2022/06/22 08:51:15;;;;;;;12.48;4.63;;;21.50;99.90;;;;;;5053896;28;20079;-74
2022/06/22 08:54:06;;;;;;;16.35;4.88;;;21.50;99.90;;;;;;5045982;28;20026;-74
2022/06/22 08:56:55;;;;;;;19.30;5.38;;;21.50;99.90;;;;;;5056873;28;20097;-75
2022/06/22 08:59:42;;;;;;;12.15;4.38;;;21.50;99.90;;;;;;5041418;28;20025;-75
2022/06/22 09:02:30;;;;;;;14.75;4.63;;;21.70;99.90;;;;;;5055639;28;20071;-75
2022/06/22 09:05:01;;;;;;;14.10;5.82;;;21.70;99.90;;;;;;5073695;28;20039;-75
2022/06/22 09:07:30;;;;;;;16.25;4.78;;;21.80;99.90;;;;;;5065359;28;20025;-75
2022/06/22 09:10:33;;;;;;;10.18;4.13;;;21.80;99.90;;;;;;5043093;28;20047;-75
2022/06/22 09:13:17;;;;;;;13.25;4.15;;;22.00;99.90;;;;;;5041205;28;20017;-75
2022/06/22 09:16:08;;;;;;;10.48;4.65;;;22.00;99.90;;;;;;5067326;28;20461;-75
2022/06/22 09:18:40;;;;;;;12.35;4.85;;;22.10;99.90;;;;;;5044817;28;20072;-75
2022/06/22 09:21:17;;;;;;;13.45;5.18;;;22.20;99.90;;;;;;5071631;28;20527;-75
2022/06/22 09:24:06;;;;;;;15.13;5.00;;;22.40;99.90;;;;;;5073288;28;20031;-76
2022/06/22 09:26:49;;;;;;;18.05;5.22;;;22.30;99.90;;;;;;5070075;28;20058;-75
2022/06/22 09:29:39;;;;;;;18.75;5.55;;;22.40;99.90;;;;;;5062065;28;20068;-76
2022/06/22 09:32:18;;;;;;;14.63;5.20;;;22.30;99.90;;;;;;5054051;28;20207;-75
2022/06/22 09:35:05;;;;;;;14.50;4.82;;;22.20;99.90;;;;;;5053327;28;20025;-75
2022/06/22 09:37:41;;;;;;;15.57;5.47;;;22.20;99.90;;;;;;5053563;28;20021;-75
2022/06/22 09:40:24;;;;;;;13.10;5.00;;;22.10;99.90;;;;;;5052950;28;20116;-76
2022/06/22 09:43:11;;;;;;;14.40;5.78;;;22.00;99.90;;;;;;5051110;28;20404;-76
2022/06/22 09:46:03;;;;;;;17.65;5.32;;;21.90;99.90;;;;;;5056458;28;20078;-80
2022/06/22 09:48:48;;;;;;;15.23;5.30;;;21.80;99.90;;;;;;5051254;28;20382;-80
2022/06/22 09:51:40;;;;;;;17.48;5.97;;;21.70;99.90;;;;;;5042345;28;20377;-77
2022/06/22 09:54:05;;;;;;;18.20;5.45;;;21.70;99.90;;;;;;5017667;28;20469;-76
2022/06/22 09:56:43;;;;;;;17.48;5.35;;;21.50;99.90;;;;;;5052971;28;20043;-76
2022/06/22 09:59:41;;;;;;;20.98;6.20;;;21.50;99.90;;;;;;5053063;28;20025;-76
2022/06/22 10:02:25;;;;;;;14.02;5.50;;;21.50;99.90;;;;;;5061951;28;20052;-76
2022/06/22 10:05:18;;;;;;;11.30;5.00;;;21.40;99.90;;;;;;5066917;28;20032;-76
2022/06/22 10:07:49;;;;;;;15.05;5.55;;;21.40;99.90;;;;;;5035339;28;20067;-76
2022/06/22 10:10:33;;;;;;;17.75;5.43;;;21.40;99.90;;;;;;5066115;28;20044;-76
2022/06/22 10:13:22;;;;;;;13.27;5.22;;;21.50;99.90;;;;;;5053164;28;20021;-77
2022/06/22 10:15:50;;;;;;;16.17;5.82;;;21.50;99.90;;;;;;5061216;28;20016;-77
2022/06/22 10:18:45;;;;;;;15.13;5.60;;;21.60;99.90;;;;;;5058936;28;20021;-77
2022/06/22 10:21:31;;;;;;;15.60;5.60;;;21.80;99.90;;;;;;5061169;28;20452;-77
2022/06/22 10:24:31;;;;;;;13.80;5.90;;;21.90;99.90;;;;;;5034795;28;20025;-72
2022/06/22 10:27:28;;;;;;;16.85;5.68;;;22.00;99.90;;;;;;4994033;28;20119;-70
2022/06/22 10:30:16;;;;;;;13.90;6.20;;;22.20;99.90;;;;;;5062057;28;20033;-69
2022/06/22 10:33:12;;;;;;;11.30;5.72;;;22.20;99.90;;;;;;5052073;28;20079;-75
2022/06/22 10:36:23;;;;;;;13.70;5.75;;;22.10;99.90;;;;;;5062676;28;20026;-75
2022/06/22 10:39:27;;;;;;;15.93;6.20;;;22.00;99.90;;;;;;5020266;28;20068;-76
2022/06/22 10:45:09;;;;;;;12.95;6.38;;;21.80;99.90;;;;;;5046213;28;20059;-69
2022/06/22 10:47:49;;;;;;;;;;;21.70;99.90;;;;;;5041607;28;20071;-68
2022/06/22 10:50:32;;;;;;;14.45;5.97;;;21.60;99.90;;;;;;5051819;28;19938;-68
2022/06/22 10:53:10;;;;;;;14.70;6.68;;;21.50;99.90;;;;;;5051998;28;20053;-69
2022/06/22 10:55:54;;;;;;;13.45;6.57;;;21.50;99.90;;;;;;5051710;28;20032;-68
2022/06/22 10:58:38;;;;;;;18.67;6.95;;;21.50;99.90;;;;;;5050661;28;20374;-68
2022/06/22 11:01:03;;;;;;;10.95;5.90;;;21.40;99.90;;;;;;5037558;28;20036;-68
2022/06/22 11:04:06;;;;;;;14.40;5.65;;;21.40;99.90;;;;;;5051224;28;20033;-68
2022/06/22 11:06:38;;;;;;;16.50;6.40;;;21.40;99.90;;;;;;5040650;28;20025;-68
2022/06/22 11:09:25;;;;;;;16.45;6.13;;;21.40;99.90;;;;;;5044166;28;20076;-67
2022/06/22 11:11:57;;;;;;;15.27;6.28;;;21.40;99.90;;;;;;5052229;28;20048;-67
2022/06/22 11:14:47;;;;;;;12.23;6.15;;;21.40;99.90;;;;;;5049254;28;20114;-71
2022/06/22 11:17:39;;;;;;;14.88;6.03;;;21.40;99.90;;;;;;5048101;28;20021;-69
2022/06/22 11:20:33;;;;;;;12.77;6.28;;;21.50;99.90;;;;;;5049555;28;20119;-69
2022/06/22 11:23:24;;;;;;;16.85;6.75;;;21.40;99.90;;;;;;5052983;28;20024;-69
2022/06/22 11:32:36;;;;;;;16.17;6.35;;;21.40;99.90;;;;;;5051661;28;20036;-70
2022/06/22 11:35:26;;;;;;;17.00;6.47;;;21.40;99.90;;;;;;5048585;28;20021;-69
2022/06/22 11:38:11;;;;;;;17.08;6.68;;;21.50;99.90;;;;;;5045194;28;20547;-70
2022/06/22 11:40:45;;;;;;;15.73;7.25;;;21.50;99.90;;;;;;5049505;28;20120;-69
2022/06/22 11:43:48;;;;;;;15.25;6.38;;;21.50;99.90;;;;;;5052572;28;20025;-69
2022/06/22 11:46:25;;;;;;;16.77;6.95;;;21.60;99.90;;;;;;5042436;28;20108;-70
2022/06/22 11:49:25;;;;;;;15.32;7.15;;;21.60;99.90;;;;;;5051242;28;20025;-70
2022/06/22 11:52:13;;;;;;;19.90;6.65;;;21.70;99.90;;;;;;5052103;28;20028;-70
2022/06/22 11:54:44;;;;;;;19.38;6.35;;;21.60;99.90;;;;;;5054274;28;20381;-69
2022/06/22 11:57:46;;;;;;;16.25;7.00;;;21.70;99.90;;;;;;5054731;28;20046;-70
2022/06/22 12:00:54;;;;;;;14.20;6.05;;;21.80;99.90;;;;;;5044544;28;20068;-67
2022/06/22 12:03:46;;;;;;;15.93;6.00;;;21.80;99.90;;;;;;5060012;28;20086;-69
2022/06/22 12:06:15;;;;;;;16.35;6.28;;;22.00;99.90;;;;;;5042575;28;20055;-69
2022/06/22 12:08:54;;;;;;;15.70;6.03;;;22.00;99.90;;;;;;5054176;28;20095;-70
2022/06/22 12:11:53;;;;;;;15.93;7.00;;;22.10;99.90;;;;;;5044543;28;20041;-69
2022/06/22 12:17:19;;;;;;;17.35;6.28;;;22.50;99.90;;;;;;5050993;28;20106;-67
2022/06/22 12:20:07;;;;;;;15.25;5.55;;;22.70;99.90;;;;;;5048087;28;20052;-68
2022/06/22 12:22:44;;;;;;;18.10;6.43;;;22.80;99.90;;;;;;5049142;28;20059;-70
2022/06/22 12:25:20;;;;;;;13.23;5.05;;;22.90;99.90;;;;;;5050169;28;20104;-69
2022/06/22 12:28:02;;;;;;;16.20;5.50;;;23.00;99.90;;;;;;5050770;28;20021;-68
2022/06/22 12:31:06;;;;;;;22.92;5.57;;;23.00;99.90;;;;;;5050541;28;20052;-68
2022/06/22 12:33:40;;;;;;;14.60;3.83;;;23.00;99.90;;;;;;5052685;28;20025;-68
2022/06/22 12:36:36;;;;;;;13.10;4.72;;;22.90;99.90;;;;;;5053500;28;20029;-68
2022/06/22 12:39:06;;;;;;;;;;;22.90;99.90;;;;;;5053524;28;20025;-68
2022/06/22 12:41:38;;;;;;;21.27;4.43;;;22.70;99.90;;;;;;5035006;28;20246;-68
2022/06/22 12:44:25;;;;;;;15.68;3.95;;;22.50;99.90;;;;;;5049015;28;20025;-68
2022/06/22 12:47:02;;;;;;;16.67;5.13;;;22.40;99.90;;;;;;5047433;28;20497;-68
2022/06/22 12:49:45;;;;;;;16.08;4.03;;;22.30;99.90;;;;;;5055160;28;20112;-68
2022/06/22 12:52:33;;;;;;;13.18;3.53;;;22.10;99.90;;;;;;5046683;28;20099;-69
2022/06/22 12:55:05;;;;;;;19.52;4.65;;;22.00;99.90;;;;;;5051372;28;20027;-69
2022/06/22 12:58:23;;;;;;;17.40;5.15;;;21.90;99.90;;;;;;5048793;28;20048;-68
2022/06/22 13:00:50;;;;;;;17.40;4.45;;;21.80;99.90;;;;;;5030664;28;20079;-69
2022/06/22 13:03:22;;;;;;;15.75;4.70;;;21.70;99.90;;;;;;5051213;28;20744;-69
2022/06/22 13:05:48;;;;;;;13.15;4.00;;;21.60;99.90;;;;;;5047038;28;20043;-69
2022/06/22 13:08:21;;;;;;;12.45;4.07;;;21.50;99.90;;;;;;5046900;28;20108;-67
2022/06/22 13:10:57;;;;;;;18.20;4.25;;;21.40;99.90;;;;;;5030287;28;20057;-67
2022/06/22 13:13:32;;;;;;;20.33;3.72;;;21.30;99.90;;;;;;5049470;28;20422;-68
2022/06/22 13:16:19;;;;;;;18.27;4.32;;;21.20;99.90;;;;;;5053997;28;20020;-68
2022/06/22 13:19:08;;;;;;;20.83;4.88;;;21.20;99.90;;;;;;5050363;28;20029;-68
2022/06/22 13:21:49;;;;;;;16.15;4.07;;;21.10;99.90;;;;;;5044994;28;20028;-67
2022/06/22 13:24:24;;;;;;;17.67;4.95;;;21.00;99.90;;;;;;5048584;28;20032;-68
2022/06/22 13:27:08;;;;;;;22.92;4.93;;;20.90;99.90;;;;;;5056407;28;20029;-68
2022/06/22 13:29:48;;;;;;;19.55;4.78;;;20.90;99.90;;;;;;5052018;28;20028;-68
2022/06/22 13:32:16;;;;;;;17.58;3.70;;;20.80;99.90;;;;;;5051470;28;20025;-67
2022/06/22 13:35:05;;;;;;;18.67;4.13;;;20.80;99.90;;;;;;5052156;28;20051;-68
2022/06/22 13:37:36;;;;;;;17.17;4.65;;;20.80;99.90;;;;;;5050428;28;20036;-68
2022/06/22 13:40:29;;;;;;;19.02;4.82;;;20.80;99.90;;;;;;5050165;28;20087;-68
2022/06/22 13:43:13;;;;;;;14.70;4.00;;;20.90;99.90;;;;;;5052281;28;20061;-68
2022/06/22 13:46:23;;;;;;;13.02;3.47;;;20.90;99.90;;;;;;5056635;28;20021;-70
2022/06/22 13:49:18;;;;;;;15.52;4.22;;;21.00;99.90;;;;;;5064516;28;20032;-68
2022/06/22 13:52:10;;;;;;;17.05;4.25;;;21.00;99.90;;;;;;5061392;28;20075;-68
2022/06/22 13:54:49;;;;;;;11.80;4.38;;;21.00;99.90;;;;;;5050788;28;20021;-69
2022/06/22 13:57:24;;;;;;;19.17;5.47;;;21.10;99.90;;;;;;5049982;28;20090;-68
2022/06/22 13:59:58;;;;;;;16.80;5.15;;;21.10;99.90;;;;;;5050472;28;20400;-68